Terminal Aerodrome Forecast
Issued by NWS

Home | Current Version | Previous Version | Text Only | Print | Product List | Glossary On
Versions: 1 2 3 4 5 6 7 8 9 10 11 12 13 14
000
FTUS45 KBOU 131141
TAFAPA
TAF
KAPA 131141Z 1312/1412 07006KT P6SM SCT120 BKN220
     FM131300 10007KT P6SM BKN110 BKN200
     FM131500 16006KT P6SM SCT120 SCT220
     FM131700 03010KT P6SM SCT080 SCT150 SCT200
     FM140000 08010KT P6SM SCT080 BKN110
     FM140500 09011KT P6SM VCSH SCT030 BKN050
      TEMPO 1405/1407 5SM -SN BR BKN030
     FM140700 05008KT 2SM -SN BR BKN012 OVC020=

USA.gov is the U.S. government's official web portal to all federal, state and local government web resources and services.